Time;durP1;ratioP1;P1;durP2;ratioP2;P2;SDS_P1;SDS_P2;PMS_P1;PMS_P2;Temp;Humidity;BMP_temperature;BMP_pressure;BME280_temperature;BME280_humidity;BME280_pressure;Samples;Min_cycle;Max_cycle;Signal;HPM_P1;HPM_P2
2023/11/03 00:00:31;;;;;;;1.55;0.55;;;9.20;99.90;;;;;;5024045;28;20050;-77
2023/11/03 00:02:59;;;;;;;3.00;0.80;;;9.20;99.90;;;;;;5006242;28;20177;-77
2023/11/03 00:05:26;;;;;;;5.47;0.68;;;9.20;99.90;;;;;;5014160;28;20101;-76
2023/11/03 00:07:53;;;;;;;2.38;0.70;;;9.10;99.90;;;;;;5016098;28;20060;-77
2023/11/03 00:10:19;;;;;;;3.80;0.75;;;9.10;99.90;;;;;;5010484;28;20137;-77
2023/11/03 00:12:46;;;;;;;2.90;0.68;;;9.10;99.90;;;;;;5009096;28;20112;-77
2023/11/03 00:15:13;;;;;;;3.95;0.75;;;9.10;99.90;;;;;;5006529;28;20050;-77
2023/11/03 00:17:41;;;;;;;3.35;0.75;;;9.10;99.90;;;;;;5007602;28;20042;-77
2023/11/03 00:20:14;;;;;;;2.38;0.70;;;9.10;99.90;;;;;;5009219;28;20065;-77
2023/11/03 00:22:42;;;;;;;1.67;0.63;;;9.10;99.90;;;;;;5012614;28;20108;-77
2023/11/03 00:25:13;;;;;;;2.20;0.73;;;9.10;99.90;;;;;;5010694;28;20096;-77
2023/11/03 00:27:42;;;;;;;2.63;0.60;;;9.10;99.90;;;;;;5010588;28;20042;-77
2023/11/03 00:30:10;;;;;;;2.58;0.68;;;9.10;99.90;;;;;;5010552;28;20516;-77
2023/11/03 00:32:37;;;;;;;1.33;0.73;;;9.10;99.90;;;;;;5006992;28;20045;-77
2023/11/03 00:35:08;;;;;;;2.45;1.02;;;9.10;99.90;;;;;;5006346;28;20100;-77
2023/11/03 00:37:41;;;;;;;4.32;1.00;;;9.10;99.90;;;;;;5011456;28;20124;-77
2023/11/03 00:40:10;;;;;;;1.73;1.20;;;9.10;99.90;;;;;;5010037;28;20109;-77
2023/11/03 00:42:36;;;;;;;3.75;0.90;;;9.10;99.90;;;;;;5008837;28;20489;-77
2023/11/03 00:45:05;;;;;;;3.15;0.70;;;9.10;99.90;;;;;;5005926;28;20530;-77
2023/11/03 00:47:32;;;;;;;0.90;0.55;;;9.10;99.90;;;;;;5005560;28;20054;-78
2023/11/03 00:49:59;;;;;;;1.55;0.73;;;9.10;99.90;;;;;;5009263;28;20493;-77
2023/11/03 00:52:25;;;;;;;3.75;0.98;;;9.20;99.90;;;;;;5010718;28;20061;-77
2023/11/03 00:54:53;;;;;;;4.93;0.75;;;9.10;99.90;;;;;;5010594;28;20434;-77
2023/11/03 00:57:20;;;;;;;2.40;0.70;;;9.10;99.90;;;;;;5006443;28;20042;-76
2023/11/03 00:59:49;;;;;;;2.35;0.80;;;9.10;99.90;;;;;;5007487;28;20049;-77
2023/11/03 01:02:17;;;;;;;2.10;0.90;;;9.20;99.90;;;;;;5002319;28;20050;-77
2023/11/03 01:04:44;;;;;;;2.78;0.93;;;9.10;99.90;;;;;;5012736;28;20054;-77
2023/11/03 01:07:11;;;;;;;1.67;0.80;;;9.20;99.90;;;;;;5010582;28;20129;-77
2023/11/03 01:09:38;;;;;;;1.67;0.70;;;9.20;99.90;;;;;;5009188;28;20053;-77
2023/11/03 01:12:06;;;;;;;2.95;0.90;;;9.20;99.90;;;;;;5007110;28;20077;-77
2023/11/03 01:14:33;;;;;;;2.05;0.80;;;9.20;99.90;;;;;;5006127;28;20537;-77
2023/11/03 01:17:02;;;;;;;4.70;1.90;;;9.20;99.90;;;;;;5009689;28;20053;-77
2023/11/03 01:19:30;;;;;;;1.17;0.80;;;9.20;99.90;;;;;;5026170;28;20100;-77
2023/11/03 01:21:59;;;;;;;2.17;0.85;;;9.20;99.90;;;;;;5012351;28;20132;-77
2023/11/03 01:24:26;;;;;;;5.82;1.02;;;9.20;99.90;;;;;;5008086;28;20061;-78
2023/11/03 01:26:53;;;;;;;5.10;1.13;;;9.20;99.90;;;;;;5003846;28;20109;-78
2023/11/03 01:29:20;;;;;;;2.90;1.00;;;9.20;99.90;;;;;;5004265;28;20062;-77
2023/11/03 01:31:47;;;;;;;0.75;0.57;;;9.20;99.90;;;;;;5012363;28;20073;-77
2023/11/03 01:34:13;;;;;;;2.05;0.88;;;9.30;99.90;;;;;;5011823;28;20049;-77
2023/11/03 01:36:40;;;;;;;2.95;0.80;;;9.20;99.90;;;;;;5010124;28;20081;-77
2023/11/03 01:39:08;;;;;;;3.63;1.05;;;9.30;99.90;;;;;;5008888;28;20049;-77
2023/11/03 01:41:35;;;;;;;3.70;0.80;;;9.30;99.90;;;;;;5006355;28;20050;-76
2023/11/03 01:44:07;;;;;;;4.05;1.50;;;9.30;99.90;;;;;;5005095;28;20057;-77
2023/11/03 01:46:38;;;;;;;2.95;1.05;;;9.30;99.90;;;;;;5007744;28;20050;-78
2023/11/03 01:49:06;;;;;;;4.43;1.00;;;9.30;99.90;;;;;;5011570;28;20049;-77
2023/11/03 01:51:34;;;;;;;2.63;0.82;;;9.30;99.90;;;;;;5010339;28;20057;-77
2023/11/03 01:54:05;;;;;;;4.45;1.10;;;9.30;99.90;;;;;;5007249;28;20073;-77
2023/11/03 01:56:34;;;;;;;2.85;0.80;;;9.30;99.90;;;;;;5011921;28;20054;-77
2023/11/03 01:59:03;;;;;;;4.00;1.10;;;9.30;99.90;;;;;;5008395;28;20042;-77
2023/11/03 02:01:30;;;;;;;2.05;0.60;;;9.30;99.90;;;;;;5014279;28;20137;-77
2023/11/03 02:03:56;;;;;;;2.53;0.85;;;9.30;99.90;;;;;;5014648;28;20501;-78
2023/11/03 02:06:24;;;;;;;4.03;1.20;;;9.30;99.90;;;;;;5013671;28;20057;-77
2023/11/03 02:08:50;;;;;;;5.32;0.90;;;9.30;99.90;;;;;;5011838;28;20049;-77
2023/11/03 02:11:30;;;;;;;4.22;1.10;;;9.30;99.90;;;;;;5007960;28;20230;-77
2023/11/03 02:13:57;;;;;;;3.20;1.10;;;9.30;99.90;;;;;;5005749;28;20133;-77
2023/11/03 02:16:25;;;;;;;2.17;0.90;;;9.30;99.90;;;;;;5015445;28;20042;-77
2023/11/03 02:18:52;;;;;;;5.25;1.30;;;9.40;99.90;;;;;;5014082;28;20119;-77
2023/11/03 02:21:19;;;;;;;2.80;1.08;;;9.40;99.90;;;;;;5011439;28;20081;-77
2023/11/03 02:23:45;;;;;;;2.42;0.90;;;9.40;99.90;;;;;;5011677;28;20484;-77
2023/11/03 02:26:13;;;;;;;1.33;0.70;;;9.30;99.90;;;;;;5008327;28;20057;-77
2023/11/03 02:28:40;;;;;;;3.17;0.90;;;9.40;99.90;;;;;;5008247;28;20065;-77
2023/11/03 02:31:07;;;;;;;3.78;1.10;;;9.30;99.90;;;;;;5015345;28;20054;-77
2023/11/03 02:33:34;;;;;;;2.30;1.00;;;9.30;99.90;;;;;;5012501;28;20078;-77
2023/11/03 02:36:01;;;;;;;3.65;1.00;;;9.30;99.90;;;;;;5012729;28;20407;-78
2023/11/03 02:38:27;;;;;;;3.50;1.10;;;9.30;99.90;;;;;;5008438;28;20093;-78
2023/11/03 02:40:55;;;;;;;3.60;0.80;;;9.30;99.90;;;;;;5010031;28;20520;-77
2023/11/03 02:43:23;;;;;;;3.92;1.25;;;9.30;99.90;;;;;;5008583;28;20454;-77
2023/11/03 02:45:50;;;;;;;4.22;0.98;;;9.30;99.90;;;;;;5015279;28;20052;-77
2023/11/03 02:48:17;;;;;;;4.57;1.02;;;9.30;99.90;;;;;;5013174;28;20050;-77
2023/11/03 02:50:44;;;;;;;1.88;0.93;;;9.20;99.90;;;;;;5011268;28;20141;-77
2023/11/03 02:53:11;;;;;;;4.32;1.00;;;9.20;99.90;;;;;;5009570;28;20105;-77
2023/11/03 02:55:38;;;;;;;1.95;0.93;;;9.20;99.90;;;;;;5008201;28;20046;-77
2023/11/03 02:58:08;;;;;;;4.32;1.20;;;9.20;99.90;;;;;;5008522;28;20046;-77
2023/11/03 03:00:36;;;;;;;4.20;0.80;;;9.20;99.90;;;;;;5013709;28;20046;-77
2023/11/03 03:03:05;;;;;;;3.85;1.10;;;9.20;99.90;;;;;;5013273;28;20237;-77
2023/11/03 03:05:33;;;;;;;4.07;1.20;;;9.20;99.90;;;;;;5010422;28;20047;-77
2023/11/03 03:08:00;;;;;;;3.83;0.90;;;9.20;99.90;;;;;;5005756;28;20050;-77
2023/11/03 03:10:26;;;;;;;2.05;0.80;;;9.20;99.90;;;;;;5005459;28;20105;-77
2023/11/03 03:12:53;;;;;;;3.47;1.17;;;9.20;99.90;;;;;;5011650;28;20099;-78
2023/11/03 03:15:20;;;;;;;5.40;1.00;;;9.20;99.90;;;;;;5014252;28;20041;-77
2023/11/03 03:17:47;;;;;;;5.93;1.23;;;9.20;99.90;;;;;;5013794;28;20037;-77
2023/11/03 03:20:13;;;;;;;3.22;1.10;;;9.20;99.90;;;;;;5010256;28;20137;-77
2023/11/03 03:22:40;;;;;;;2.53;0.95;;;9.20;99.90;;;;;;5008501;28;20056;-78
2023/11/03 03:25:08;;;;;;;11.30;1.10;;;9.20;99.90;;;;;;5013193;28;20054;-77
2023/11/03 03:27:35;;;;;;;6.80;1.13;;;9.20;99.90;;;;;;5019001;28;20046;-79
2023/11/03 03:30:02;;;;;;;8.20;1.38;;;9.20;99.90;;;;;;5018434;28;20046;-77
2023/11/03 03:32:29;;;;;;;5.38;1.27;;;9.30;99.90;;;;;;5008312;28;20088;-77
2023/11/03 03:34:57;;;;;;;9.52;1.42;;;9.30;99.90;;;;;;5008850;28;20053;-77
2023/11/03 03:37:24;;;;;;;4.32;0.80;;;9.20;99.90;;;;;;5004502;28;20112;-77
2023/11/03 03:39:50;;;;;;;7.40;1.20;;;9.30;99.90;;;;;;5012262;28;20037;-76
2023/11/03 03:42:19;;;;;;;5.32;1.30;;;9.20;99.90;;;;;;5012416;28;20502;-76
2023/11/03 03:44:46;;;;;;;4.80;1.20;;;9.20;99.90;;;;;;5010254;28;20137;-76
2023/11/03 03:47:13;;;;;;;3.97;1.17;;;9.20;99.90;;;;;;5009556;28;20490;-77
2023/11/03 03:49:40;;;;;;;3.55;1.05;;;9.20;99.90;;;;;;5006234;28;20120;-77
2023/11/03 03:52:07;;;;;;;5.28;1.02;;;9.10;99.90;;;;;;5006140;28;20069;-77
2023/11/03 03:54:34;;;;;;;5.90;1.30;;;9.10;99.90;;;;;;5010012;28;20066;-77
2023/11/03 03:57:01;;;;;;;5.55;1.00;;;9.10;99.90;;;;;;5012172;28;20077;-77
2023/11/03 03:59:29;;;;;;;5.45;1.48;;;9.10;99.90;;;;;;5009176;28;20053;-75
2023/11/03 04:01:56;;;;;;;6.88;1.20;;;9.10;99.90;;;;;;5009282;28;20049;-77
2023/11/03 04:04:22;;;;;;;6.53;1.10;;;9.10;99.90;;;;;;5007034;28;20521;-79
2023/11/03 04:06:49;;;;;;;8.75;1.85;;;9.10;99.90;;;;;;5022694;28;20049;-79
2023/11/03 04:09:16;;;;;;;1.48;1.10;;;9.00;99.90;;;;;;5006701;28;20057;-79
2023/11/03 04:11:43;;;;;;;5.78;1.95;;;9.00;99.90;;;;;;5011893;28;20088;-79
2023/11/03 04:14:10;;;;;;;5.85;1.33;;;9.00;99.90;;;;;;5011441;28;20042;-79
2023/11/03 04:16:37;;;;;;;4.68;1.40;;;8.90;99.90;;;;;;5007640;28;20070;-78
2023/11/03 04:19:03;;;;;;;7.90;1.20;;;8.90;99.90;;;;;;5004595;28;20498;-79
2023/11/03 04:21:30;;;;;;;3.60;1.00;;;8.90;99.90;;;;;;5005168;28;20105;-80
2023/11/03 04:23:57;;;;;;;6.00;1.70;;;8.90;99.90;;;;;;5015330;28;20046;-79
2023/11/03 04:26:25;;;;;;;4.80;1.40;;;8.90;99.90;;;;;;5014275;28;20056;-79
2023/11/03 04:28:52;;;;;;;6.10;1.15;;;8.90;99.90;;;;;;5012467;28;20133;-79
2023/11/03 04:31:20;;;;;;;6.55;1.02;;;8.90;99.90;;;;;;5009972;28;20049;-79
2023/11/03 04:33:47;;;;;;;6.85;1.30;;;8.90;99.90;;;;;;5008149;28;20521;-79
2023/11/03 04:36:13;;;;;;;2.83;1.23;;;8.90;99.90;;;;;;5006776;28;20545;-78
2023/11/03 04:38:40;;;;;;;6.50;1.42;;;8.90;99.90;;;;;;5011971;28;20502;-79
2023/11/03 04:41:07;;;;;;;3.60;1.42;;;8.90;99.90;;;;;;5012571;28;20152;-79
2023/11/03 04:43:35;;;;;;;4.45;1.23;;;9.00;99.90;;;;;;5009701;28;20092;-79
2023/11/03 04:46:05;;;;;;;4.57;1.10;;;9.00;99.90;;;;;;5009313;28;20057;-79
2023/11/03 04:48:32;;;;;;;12.93;1.23;;;9.00;99.90;;;;;;5011288;28;20034;-79
2023/11/03 04:50:59;;;;;;;6.15;1.27;;;9.00;99.90;;;;;;5006747;28;20505;-79
2023/11/03 04:53:26;;;;;;;8.55;1.13;;;9.10;99.90;;;;;;5010330;28;20073;-79
2023/11/03 04:55:53;;;;;;;8.70;1.13;;;9.00;99.90;;;;;;5011918;28;20328;-79
2023/11/03 04:58:20;;;;;;;6.93;1.40;;;9.00;99.90;;;;;;5011154;28;20472;-79
2023/11/03 05:00:47;;;;;;;7.30;1.20;;;9.00;99.90;;;;;;5008481;28;20046;-79
2023/11/03 05:03:15;;;;;;;11.27;1.70;;;9.10;99.90;;;;;;5006154;28;20080;-77
2023/11/03 05:05:42;;;;;;;7.80;2.00;;;9.10;99.90;;;;;;5002308;28;20085;-77
2023/11/03 05:08:09;;;;;;;6.63;1.30;;;9.10;99.90;;;;;;5010955;28;20057;-77
2023/11/03 05:10:37;;;;;;;6.50;1.15;;;9.10;99.90;;;;;;5008355;28;20049;-77
2023/11/03 05:13:04;;;;;;;12.10;1.58;;;9.10;99.90;;;;;;5007939;28;20074;-77
2023/11/03 05:15:31;;;;;;;4.05;1.10;;;9.10;99.90;;;;;;5004217;28;20230;-76
2023/11/03 05:17:59;;;;;;;8.70;1.00;;;9.10;99.90;;;;;;5004146;28;20526;-77
2023/11/03 05:20:26;;;;;;;6.32;1.20;;;9.10;99.90;;;;;;5004207;28;20100;-76
2023/11/03 05:22:53;;;;;;;5.75;1.25;;;9.10;99.90;;;;;;5009619;28;20053;-77
2023/11/03 05:25:20;;;;;;;6.82;1.48;;;9.10;99.90;;;;;;5009295;28;20123;-77
2023/11/03 05:27:47;;;;;;;7.05;1.17;;;9.10;99.90;;;;;;5006022;28;20442;-77
2023/11/03 05:30:14;;;;;;;6.53;1.40;;;9.10;99.90;;;;;;5010290;28;20041;-77
2023/11/03 05:32:41;;;;;;;4.78;1.40;;;9.10;99.90;;;;;;5017101;28;20481;-77
2023/11/03 05:35:08;;;;;;;9.68;1.67;;;9.10;99.90;;;;;;5010487;28;20042;-77
2023/11/03 05:37:35;;;;;;;5.97;1.20;;;9.10;99.90;;;;;;5009081;28;20077;-77
2023/11/03 05:40:05;;;;;;;4.03;1.33;;;9.10;99.90;;;;;;5008872;28;20301;-76
2023/11/03 05:42:32;;;;;;;5.57;1.40;;;9.10;99.90;;;;;;5005496;28;20416;-77
2023/11/03 05:44:59;;;;;;;7.22;1.90;;;9.10;99.90;;;;;;5005803;28;20137;-77
2023/11/03 05:47:26;;;;;;;8.80;2.78;;;9.10;99.90;;;;;;5007870;28;20052;-77
2023/11/03 05:49:53;;;;;;;7.78;2.08;;;9.00;99.90;;;;;;5009412;28;20511;-77
2023/11/03 05:52:20;;;;;;;4.40;1.50;;;9.10;99.90;;;;;;5009411;28;20501;-76
2023/11/03 05:54:47;;;;;;;8.45;1.75;;;9.10;99.90;;;;;;5006778;28;20073;-76
2023/11/03 05:57:14;;;;;;;4.95;1.35;;;9.10;99.90;;;;;;5007072;28;20052;-77
2023/11/03 05:59:40;;;;;;;6.85;2.38;;;9.10;99.90;;;;;;5008708;28;20097;-77
2023/11/03 06:02:07;;;;;;;9.13;1.80;;;9.00;99.90;;;;;;4996556;28;20077;-77
2023/11/03 06:04:35;;;;;;;7.95;1.20;;;9.10;99.90;;;;;;5012109;28;20069;-77
2023/11/03 06:07:06;;;;;;;4.93;1.42;;;9.10;99.90;;;;;;5010483;28;20536;-77
2023/11/03 06:09:34;;;;;;;8.18;1.23;;;9.10;99.90;;;;;;5007734;28;20054;-77
2023/11/03 06:12:02;;;;;;;6.25;1.27;;;9.10;99.90;;;;;;5007235;28;20046;-77
2023/11/03 06:14:29;;;;;;;4.93;1.25;;;9.20;99.90;;;;;;5009207;28;20049;-77
2023/11/03 06:16:56;;;;;;;6.63;1.30;;;9.20;99.90;;;;;;5004251;28;20474;-77
2023/11/03 06:19:22;;;;;;;5.93;1.13;;;9.20;99.90;;;;;;5012201;28;20046;-77
2023/11/03 06:21:49;;;;;;;4.45;1.48;;;9.20;99.90;;;;;;5009893;28;20533;-77
2023/11/03 06:24:16;;;;;;;5.40;1.35;;;9.20;99.90;;;;;;5009284;28;20056;-77
2023/11/03 06:26:43;;;;;;;7.70;1.40;;;9.20;99.90;;;;;;5005346;28;20100;-77
2023/11/03 06:29:09;;;;;;;8.07;1.30;;;9.20;99.90;;;;;;5006246;28;20184;-78
2023/11/03 06:31:37;;;;;;;8.63;1.60;;;9.20;99.90;;;;;;5001152;28;20506;-76
2023/11/03 06:34:03;;;;;;;7.85;1.10;;;9.10;99.90;;;;;;5011758;28;20042;-77
2023/11/03 06:36:30;;;;;;;5.63;1.10;;;9.20;99.90;;;;;;5009819;28;20042;-77
2023/11/03 06:39:15;;;;;;;6.70;2.20;;;9.20;99.90;;;;;;5007693;28;20133;-77
2023/11/03 06:41:43;;;;;;;3.78;1.13;;;9.20;99.90;;;;;;5004648;28;20133;-77
2023/11/03 06:44:11;;;;;;;9.43;1.52;;;9.20;99.90;;;;;;5005207;28;20047;-77
2023/11/03 06:46:38;;;;;;;8.75;1.58;;;9.20;99.90;;;;;;5008727;28;20473;-77
2023/11/03 06:49:08;;;;;;;6.45;1.20;;;9.20;99.90;;;;;;5006935;28;20046;-77
2023/11/03 06:51:35;;;;;;;2.50;1.10;;;9.20;99.90;;;;;;5012067;28;20046;-77
2023/11/03 06:54:02;;;;;;;8.65;1.63;;;9.20;99.90;;;;;;5010908;28;20038;-77
2023/11/03 06:56:29;;;;;;;4.93;1.33;;;9.20;99.90;;;;;;5013417;28;20049;-77
2023/11/03 06:58:56;;;;;;;6.28;1.50;;;9.20;99.90;;;;;;5007786;28;20104;-77
2023/11/03 07:01:23;;;;;;;7.45;1.50;;;9.10;99.90;;;;;;5011835;28;20053;-78
2023/11/03 07:03:52;;;;;;;5.45;1.10;;;9.10;99.90;;;;;;5013134;28;20054;-77
2023/11/03 07:06:20;;;;;;;5.35;1.55;;;9.10;99.90;;;;;;5012638;28;20050;-77
2023/11/03 07:08:47;;;;;;;6.90;1.05;;;9.10;99.90;;;;;;5009021;28;20549;-77
2023/11/03 07:11:14;;;;;;;5.60;1.17;;;9.10;99.90;;;;;;5009804;28;20077;-77
2023/11/03 07:13:41;;;;;;;4.70;1.00;;;9.10;99.90;;;;;;5011369;28;20042;-78
2023/11/03 07:16:08;;;;;;;4.80;1.08;;;9.00;99.90;;;;;;5007200;28;20065;-77
2023/11/03 07:18:35;;;;;;;5.75;1.10;;;8.90;99.90;;;;;;5012785;28;20046;-77
2023/11/03 07:21:07;;;;;;;4.55;0.98;;;8.90;99.90;;;;;;5010944;28;20054;-77
2023/11/03 07:23:34;;;;;;;9.43;1.30;;;8.90;99.90;;;;;;5011436;28;20057;-78
2023/11/03 07:26:01;;;;;;;5.38;1.25;;;8.80;99.90;;;;;;5008667;28;20117;-78
2023/11/03 07:28:29;;;;;;;3.70;0.88;;;8.80;99.90;;;;;;5012251;28;20085;-78
2023/11/03 07:30:57;;;;;;;5.07;0.70;;;8.90;99.90;;;;;;5012709;28;20054;-78
2023/11/03 07:33:24;;;;;;;4.47;1.30;;;8.90;99.90;;;;;;5012588;28;20490;-77
2023/11/03 07:35:52;;;;;;;7.18;1.10;;;8.90;99.90;;;;;;5009823;28;20129;-78
2023/11/03 07:38:19;;;;;;;5.80;1.00;;;8.90;99.90;;;;;;5010090;28;20125;-78
2023/11/03 07:40:48;;;;;;;2.33;1.57;;;9.00;99.90;;;;;;5005765;28;20070;-78
2023/11/03 07:43:15;;;;;;;3.72;0.98;;;9.00;99.90;;;;;;5007838;28;20288;-78
2023/11/03 07:45:42;;;;;;;5.90;1.40;;;9.00;99.90;;;;;;5014363;28;20136;-78
2023/11/03 07:48:09;;;;;;;3.03;1.27;;;9.00;99.90;;;;;;5027322;28;20104;-78
2023/11/03 07:50:35;;;;;;;6.32;1.77;;;9.00;99.90;;;;;;5010376;28;20485;-78
2023/11/03 07:53:03;;;;;;;4.40;1.40;;;9.00;99.90;;;;;;5007625;28;20133;-78
2023/11/03 07:55:30;;;;;;;2.80;0.90;;;9.10;99.90;;;;;;5011879;28;20505;-78
2023/11/03 07:57:56;;;;;;;5.60;0.98;;;9.10;99.90;;;;;;5009165;28;20080;-78
2023/11/03 08:00:24;;;;;;;3.15;0.90;;;9.10;99.90;;;;;;5013922;28;20431;-78
2023/11/03 08:02:50;;;;;;;3.78;1.00;;;9.10;99.90;;;;;;5010533;28;20073;-78
2023/11/03 08:05:18;;;;;;;2.10;0.75;;;9.10;99.90;;;;;;5010690;28;20138;-78
2023/11/03 08:07:45;;;;;;;5.40;1.00;;;9.10;99.90;;;;;;5007024;28;20514;-78
2023/11/03 08:10:12;;;;;;;7.32;0.93;;;9.10;99.90;;;;;;5007183;28;20104;-78
2023/11/03 08:12:39;;;;;;;3.47;1.10;;;9.10;99.90;;;;;;5007157;28;20395;-78
2023/11/03 08:15:08;;;;;;;4.53;1.00;;;9.20;99.90;;;;;;5012968;28;20105;-78
2023/11/03 08:17:43;;;;;;;6.22;1.00;;;9.30;99.90;;;;;;5009507;28;20588;-78
2023/11/03 08:20:13;;;;;;;3.63;0.87;;;9.30;99.90;;;;;;5010157;28;20042;-78
2023/11/03 08:22:39;;;;;;;5.13;0.93;;;9.30;99.90;;;;;;5006557;28;20123;-78
2023/11/03 08:25:07;;;;;;;7.22;1.50;;;9.30;99.90;;;;;;5006912;28;20054;-78
2023/11/03 08:27:34;;;;;;;4.85;1.23;;;9.30;99.90;;;;;;5010818;28;20046;-78
2023/11/03 08:30:04;;;;;;;3.60;0.70;;;9.30;99.90;;;;;;5012734;28;20525;-78
2023/11/03 08:32:30;;;;;;;6.22;1.40;;;9.40;99.90;;;;;;5012471;28;20050;-78
2023/11/03 08:34:58;;;;;;;4.47;0.77;;;9.40;99.90;;;;;;5009458;28;20050;-77
2023/11/03 08:37:25;;;;;;;3.28;0.80;;;9.40;99.90;;;;;;5014928;28;20046;-77
2023/11/03 08:39:52;;;;;;;2.92;0.90;;;9.50;99.90;;;;;;5005078;28;20396;-77
2023/11/03 08:42:20;;;;;;;2.67;0.85;;;9.50;99.90;;;;;;5015298;28;20054;-78
2023/11/03 08:44:47;;;;;;;4.90;1.00;;;9.50;99.90;;;;;;5013146;28;20049;-78
2023/11/03 08:47:15;;;;;;;5.28;0.95;;;9.60;99.90;;;;;;5007763;28;20049;-78
2023/11/03 08:49:42;;;;;;;2.88;0.75;;;9.50;99.90;;;;;;5007052;28;20046;-78
2023/11/03 08:52:09;;;;;;;3.13;0.85;;;9.60;99.90;;;;;;5005760;28;20083;-78
2023/11/03 08:54:36;;;;;;;5.05;1.00;;;9.60;99.90;;;;;;5006468;28;20042;-78
2023/11/03 08:57:05;;;;;;;6.72;1.05;;;9.60;99.90;;;;;;5011781;28;20048;-78
2023/11/03 08:59:32;;;;;;;3.33;1.00;;;9.70;99.90;;;;;;5011152;28;20307;-78
2023/11/03 09:01:59;;;;;;;3.13;1.02;;;9.70;99.90;;;;;;5007263;28;20057;-78
2023/11/03 09:04:26;;;;;;;2.80;0.70;;;9.70;99.90;;;;;;5002677;28;20054;-78
2023/11/03 09:06:53;;;;;;;4.20;1.05;;;9.80;99.90;;;;;;5003322;28;20061;-77
2023/11/03 09:09:21;;;;;;;6.00;1.10;;;9.80;99.90;;;;;;5005747;28;20528;-78
2023/11/03 09:11:48;;;;;;;3.25;0.95;;;9.80;99.90;;;;;;5011548;28;20293;-78
2023/11/03 09:14:15;;;;;;;2.72;0.80;;;9.90;99.90;;;;;;5010170;28;20052;-78
2023/11/03 09:16:42;;;;;;;3.60;1.25;;;9.90;99.90;;;;;;5008022;28;20494;-77
2023/11/03 09:19:09;;;;;;;3.30;1.15;;;9.90;99.90;;;;;;5006695;28;20046;-78
2023/11/03 09:21:36;;;;;;;6.90;1.00;;;9.90;99.90;;;;;;5005185;28;20042;-78
2023/11/03 09:24:05;;;;;;;9.43;2.45;;;9.90;99.90;;;;;;5011817;28;20050;-77
2023/11/03 09:26:32;;;;;;;2.30;1.00;;;9.90;99.90;;;;;;5012012;28;20057;-78
2023/11/03 09:29:01;;;;;;;6.78;1.38;;;9.90;99.90;;;;;;5010110;28;20568;-78
2023/11/03 09:31:28;;;;;;;6.43;0.90;;;9.90;99.90;;;;;;5007316;28;20050;-78
2023/11/03 09:33:58;;;;;;;4.07;0.98;;;9.90;99.90;;;;;;5004418;28;20521;-78
2023/11/03 09:36:25;;;;;;;3.00;1.05;;;9.90;99.90;;;;;;5005620;28;20048;-76
2023/11/03 09:38:51;;;;;;;9.18;1.42;;;9.90;99.90;;;;;;5008846;28;20086;-78
2023/11/03 09:41:19;;;;;;;3.53;1.08;;;9.90;99.90;;;;;;5009762;28;20046;-78
2023/11/03 09:43:47;;;;;;;1.38;0.68;;;9.90;99.90;;;;;;5010383;28;20104;-78
2023/11/03 09:46:14;;;;;;;3.75;1.15;;;10.00;99.90;;;;;;5012106;28;20132;-78
2023/11/03 09:48:41;;;;;;;3.90;1.40;;;10.00;99.90;;;;;;5011423;28;20057;-77
2023/11/03 09:51:11;;;;;;;3.60;1.00;;;10.00;99.90;;;;;;5004608;28;20104;-77
2023/11/03 09:53:43;;;;;;;3.50;0.80;;;10.00;99.90;;;;;;5010749;28;20042;-78
2023/11/03 09:56:12;;;;;;;5.57;1.10;;;10.00;99.90;;;;;;5009409;28;20573;-78
2023/11/03 09:58:38;;;;;;;3.30;1.05;;;10.00;99.90;;;;;;5001036;28;20046;-78
2023/11/03 10:01:08;;;;;;;2.00;0.70;;;10.00;99.90;;;;;;5008264;28;20058;-78
2023/11/03 10:03:37;;;;;;;5.68;0.93;;;10.00;99.90;;;;;;5006034;28;20449;-78
2023/11/03 10:06:04;;;;;;;4.05;1.45;;;10.00;99.90;;;;;;5003397;28;20491;-78
2023/11/03 10:08:31;;;;;;;4.88;1.70;;;10.10;99.90;;;;;;5012121;28;20107;-78
2023/11/03 10:10:58;;;;;;;8.05;1.60;;;10.10;99.90;;;;;;5009391;28;20465;-78
2023/11/03 10:13:25;;;;;;;3.22;0.85;;;10.20;99.90;;;;;;5009137;28;20077;-78
2023/11/03 10:15:51;;;;;;;5.22;1.73;;;10.20;99.90;;;;;;5006147;28;20121;-78
2023/11/03 10:18:18;;;;;;;6.40;1.15;;;10.30;99.90;;;;;;5009068;28;20057;-78
2023/11/03 10:20:46;;;;;;;4.88;1.17;;;10.30;99.90;;;;;;5009578;28;20488;-78
2023/11/03 10:23:13;;;;;;;3.72;1.20;;;10.40;99.90;;;;;;5014621;28;20050;-78
2023/11/03 10:25:44;;;;;;;5.93;1.00;;;10.40;99.90;;;;;;5016661;28;20078;-78
2023/11/03 10:28:11;;;;;;;;;;;10.40;99.90;;;;;;5012417;28;20054;-78
2023/11/03 10:30:38;;;;;;;10.68;1.83;;;10.50;99.90;;;;;;5010635;28;19937;-78
2023/11/03 10:33:05;;;;;;;3.33;0.90;;;10.50;99.90;;;;;;5006580;28;20061;-78
2023/11/03 10:35:33;;;;;;;2.60;1.10;;;10.60;99.90;;;;;;5012828;28;20125;-78
2023/11/03 10:38:01;;;;;;;5.70;1.20;;;10.60;99.90;;;;;;5015768;28;20073;-78
2023/11/03 10:40:28;;;;;;;2.95;1.10;;;10.70;99.90;;;;;;5013237;28;20046;-78
2023/11/03 10:42:57;;;;;;;9.65;1.20;;;10.70;99.90;;;;;;5011449;28;20077;-78
2023/11/03 10:45:30;;;;;;;5.63;1.08;;;10.80;99.90;;;;;;5010291;28;20470;-79
2023/11/03 10:48:13;;;;;;;3.97;1.20;;;10.80;99.90;;;;;;5007423;28;20472;-78
2023/11/03 10:50:59;;;;;;;5.22;1.25;;;10.80;99.90;;;;;;5015237;28;20506;-78
2023/11/03 10:53:46;;;;;;;4.82;0.80;;;10.80;99.90;;;;;;5012653;28;20045;-78
2023/11/03 10:56:22;;;;;;;2.40;0.93;;;10.80;99.90;;;;;;5012041;28;20249;-78
2023/11/03 10:59:09;;;;;;;3.70;0.88;;;10.90;99.90;;;;;;5012200;28;20054;-79
2023/11/03 11:01:48;;;;;;;4.03;1.00;;;11.00;99.90;;;;;;5010388;28;20711;-79
2023/11/03 11:04:41;;;;;;;3.20;0.90;;;11.00;99.90;;;;;;5012089;28;20056;-79
2023/11/03 11:07:15;;;;;;;2.72;1.02;;;11.10;99.90;;;;;;5013147;28;20057;-78
2023/11/03 11:09:45;;;;;;;6.45;0.90;;;11.20;99.90;;;;;;5014373;28;20064;-79
2023/11/03 11:12:15;;;;;;;1.77;0.80;;;11.20;99.90;;;;;;5009665;28;20054;-79
2023/11/03 11:14:43;;;;;;;3.38;0.75;;;11.20;99.90;;;;;;5010236;28;20077;-79
2023/11/03 11:17:13;;;;;;;4.85;0.93;;;11.20;99.90;;;;;;5014044;28;20422;-78
2023/11/03 11:19:45;;;;;;;6.40;1.00;;;11.20;99.90;;;;;;5016824;28;20038;-79
2023/11/03 11:22:14;;;;;;;2.92;0.60;;;11.20;99.90;;;;;;5013541;28;20055;-78
2023/11/03 11:24:42;;;;;;;3.85;0.98;;;11.20;99.90;;;;;;5012803;28;20085;-78
2023/11/03 11:27:17;;;;;;;2.67;0.82;;;11.20;99.90;;;;;;5010532;28;20050;-77
2023/11/03 11:29:45;;;;;;;3.42;0.80;;;11.30;99.90;;;;;;5007776;28;20108;-77
2023/11/03 11:32:12;;;;;;;3.03;0.90;;;11.30;99.90;;;;;;5009032;28;20052;-78
2023/11/03 11:34:41;;;;;;;2.88;1.35;;;11.40;99.90;;;;;;5014040;28;20046;-77
2023/11/03 11:37:26;;;;;;;6.18;1.50;;;11.40;99.90;;;;;;5011712;28;20056;-78
2023/11/03 11:40:01;;;;;;;4.47;1.40;;;11.50;99.90;;;;;;5004261;28;20100;-78
2023/11/03 11:42:35;;;;;;;2.53;1.10;;;11.50;99.90;;;;;;5008456;28;20417;-79
2023/11/03 11:45:04;;;;;;;3.00;0.95;;;11.60;99.90;;;;;;5004040;28;20050;-77
2023/11/03 11:47:32;;;;;;;4.68;1.20;;;11.60;99.90;;;;;;5011273;28;20057;-78
2023/11/03 11:50:00;;;;;;;4.32;1.15;;;11.70;99.90;;;;;;5012356;28;20083;-77
2023/11/03 11:52:28;;;;;;;3.50;1.10;;;11.70;99.90;;;;;;5011514;28;20457;-78
2023/11/03 11:54:57;;;;;;;3.70;1.08;;;11.70;99.90;;;;;;5008912;28;20486;-78
2023/11/03 11:57:26;;;;;;;5.75;1.02;;;11.70;99.90;;;;;;5011530;28;20052;-78
2023/11/03 11:59:54;;;;;;;3.22;0.95;;;11.80;99.90;;;;;;5005141;28;20128;-77
2023/11/03 12:02:21;;;;;;;4.82;0.90;;;11.80;99.90;;;;;;5013972;28;20078;-78
2023/11/03 12:04:50;;;;;;;4.72;0.80;;;11.70;99.90;;;;;;5013791;28;20081;-78
2023/11/03 12:07:35;;;;;;;2.90;0.68;;;11.60;99.90;;;;;;5009107;28;20545;-77
2023/11/03 12:10:02;;;;;;;5.40;0.95;;;11.60;99.90;;;;;;5008900;28;20129;-78
2023/11/03 12:12:30;;;;;;;7.45;1.40;;;11.60;99.90;;;;;;5006426;28;20134;-78
2023/11/03 12:15:00;;;;;;;5.10;1.48;;;11.50;99.90;;;;;;5007445;28;20046;-77
2023/11/03 12:17:27;;;;;;;;;;;11.50;99.90;;;;;;5013530;28;20502;-77
2023/11/03 12:19:54;;;;;;;2.42;0.88;;;11.50;99.90;;;;;;5012378;28;19961;-78
2023/11/03 12:22:26;;;;;;;3.60;1.05;;;11.50;99.90;;;;;;5008728;28;20054;-77
2023/11/03 12:24:54;;;;;;;7.53;1.15;;;11.50;99.90;;;;;;5012071;28;20424;-78
2023/11/03 12:27:23;;;;;;;3.50;1.10;;;11.50;99.90;;;;;;5006241;28;20050;-77
2023/11/03 12:29:51;;;;;;;5.45;1.13;;;11.40;99.90;;;;;;5010203;28;20054;-77
2023/11/03 12:32:18;;;;;;;4.57;1.45;;;11.40;99.90;;;;;;5013023;28;20057;-77
2023/11/03 12:34:45;;;;;;;2.85;1.10;;;11.40;99.90;;;;;;5010234;28;20056;-77
2023/11/03 12:37:12;;;;;;;4.28;1.17;;;11.40;99.90;;;;;;5007341;28;20050;-78
2023/11/03 12:39:50;;;;;;;8.05;1.48;;;11.50;99.90;;;;;;5003002;28;20395;-76
2023/11/03 12:42:18;;;;;;;3.75;1.25;;;11.50;99.90;;;;;;5004720;28;20054;-77
2023/11/03 12:44:48;;;;;;;2.97;1.42;;;11.50;99.90;;;;;;5012847;28;20054;-78
2023/11/03 12:47:44;;;;;;;5.10;1.70;;;11.50;99.90;;;;;;5011608;28;20104;-77
2023/11/03 12:50:19;;;;;;;6.30;1.50;;;11.50;99.90;;;;;;5008674;28;20058;-78
2023/11/03 12:52:55;;;;;;;3.45;1.25;;;11.50;99.90;;;;;;5011601;28;20402;-78
2023/11/03 12:55:25;;;;;;;2.83;1.20;;;11.50;99.90;;;;;;5005547;28;20043;-78
2023/11/03 12:57:53;;;;;;;4.25;1.30;;;11.50;99.90;;;;;;5006020;28;20099;-78
2023/11/03 13:00:24;;;;;;;2.95;1.20;;;11.60;99.90;;;;;;5012186;28;20081;-78